Breien, North Dakota
Current Conditions -  °F | °C
As of 9:55 PM on Friday 24 Oct 2014 (Local Time) from K7L2 Reporting Station
Clear Clear  
Wind Chill: 44°   Ceiling: Unl
Heat Index: 46°   Visibility: 10mi
Dew Point: 34°   Wind: 6mph
Humidity: 62%   Direction: 250°WSW
Pressure: 30.03"   Gusts: NA
Location:  46.2767°N, 100.811°W
Report Text: K7L2 250255Z AUTO 25005KT 10SM CLR 08/01 A3003 RMK AO2 PWINO PNO
Loading
Personal Weather Stations






























Interactive Weather Map
Tropical Storm Tracking
New forecast layout! Learn more

10-Day Weather Forecast

Advertisements
Track Severe Weather on mobile